sensor_id;sensor_type;location;lat;lon;timestamp;temperature;humidity
31809;DHT22;18379;48.208;-1.518;2024-02-23T00:03:00;6.00;99.90
31809;DHT22;18379;48.208;-1.518;2024-02-23T00:08:00;6.10;99.90
31809;DHT22;18379;48.208;-1.518;2024-02-23T00:13:01;6.10;99.90
31809;DHT22;18379;48.208;-1.518;2024-02-23T00:18:02;6.00;99.90
31809;DHT22;18379;48.208;-1.518;2024-02-23T00:23:04;6.00;99.90
31809;DHT22;18379;48.208;-1.518;2024-02-23T00:28:05;5.90;99.90
31809;DHT22;18379;48.208;-1.518;2024-02-23T00:33:06;5.90;99.90
31809;DHT22;18379;48.208;-1.518;2024-02-23T00:38:06;5.90;99.90
31809;DHT22;18379;48.208;-1.518;2024-02-23T00:43:08;6.00;99.90
31809;DHT22;18379;48.208;-1.518;2024-02-23T00:48:08;6.00;99.90
31809;DHT22;18379;48.208;-1.518;2024-02-23T00:53:09;6.00;99.90
31809;DHT22;18379;48.208;-1.518;2024-02-23T00:58:10;6.10;99.90
31809;DHT22;18379;48.208;-1.518;2024-02-23T01:03:10;6.10;99.90
31809;DHT22;18379;48.208;-1.518;2024-02-23T01:08:11;6.10;99.90
31809;DHT22;18379;48.208;-1.518;2024-02-23T01:13:12;6.20;99.90
31809;DHT22;18379;48.208;-1.518;2024-02-23T01:18:12;6.20;99.90
31809;DHT22;18379;48.208;-1.518;2024-02-23T01:23:13;6.20;99.90
31809;DHT22;18379;48.208;-1.518;2024-02-23T01:28:14;6.20;99.90
31809;DHT22;18379;48.208;-1.518;2024-02-23T01:33:14;6.20;99.90
31809;DHT22;18379;48.208;-1.518;2024-02-23T01:38:15;6.30;99.90
31809;DHT22;18379;48.208;-1.518;2024-02-23T01:43:20;6.30;99.90
31809;DHT22;18379;48.208;-1.518;2024-02-23T01:48:21;6.30;99.90
31809;DHT22;18379;48.208;-1.518;2024-02-23T01:53:22;6.30;99.90
31809;DHT22;18379;48.208;-1.518;2024-02-23T01:58:24;6.40;99.90
31809;DHT22;18379;48.208;-1.518;2024-02-23T02:03:24;6.30;99.90
31809;DHT22;18379;48.208;-1.518;2024-02-23T02:08:28;6.40;99.90
31809;DHT22;18379;48.208;-1.518;2024-02-23T02:13:29;6.40;99.90
31809;DHT22;18379;48.208;-1.518;2024-02-23T02:18:30;6.40;99.90
31809;DHT22;18379;48.208;-1.518;2024-02-23T02:23:31;6.50;99.90
31809;DHT22;18379;48.208;-1.518;2024-02-23T02:28:31;6.50;99.90
31809;DHT22;18379;48.208;-1.518;2024-02-23T02:33:32;6.50;99.90
31809;DHT22;18379;48.208;-1.518;2024-02-23T02:38:33;6.50;99.90
31809;DHT22;18379;48.208;-1.518;2024-02-23T02:43:34;6.40;99.90
31809;DHT22;18379;48.208;-1.518;2024-02-23T02:48:34;6.40;99.90
31809;DHT22;18379;48.208;-1.518;2024-02-23T02:53:35;6.30;99.90
31809;DHT22;18379;48.208;-1.518;2024-02-23T02:58:35;6.30;99.90
31809;DHT22;18379;48.208;-1.518;2024-02-23T03:03:36;6.30;99.90
31809;DHT22;18379;48.208;-1.518;2024-02-23T03:08:37;6.30;99.90
31809;DHT22;18379;48.208;-1.518;2024-02-23T03:13:37;6.40;99.90
31809;DHT22;18379;48.208;-1.518;2024-02-23T03:18:38;6.40;99.90
31809;DHT22;18379;48.208;-1.518;2024-02-23T03:23:38;6.30;99.90
31809;DHT22;18379;48.208;-1.518;2024-02-23T03:28:39;6.30;99.90
31809;DHT22;18379;48.208;-1.518;2024-02-23T03:33:40;6.20;99.90
31809;DHT22;18379;48.208;-1.518;2024-02-23T03:38:40;6.20;99.90
31809;DHT22;18379;48.208;-1.518;2024-02-23T03:43:41;6.20;99.90
31809;DHT22;18379;48.208;-1.518;2024-02-23T03:48:42;6.10;99.90
31809;DHT22;18379;48.208;-1.518;2024-02-23T03:53:42;6.10;99.90
31809;DHT22;18379;48.208;-1.518;2024-02-23T03:58:43;6.10;99.90
31809;DHT22;18379;48.208;-1.518;2024-02-23T04:03:44;6.10;99.90
31809;DHT22;18379;48.208;-1.518;2024-02-23T04:08:44;6.10;99.90
31809;DHT22;18379;48.208;-1.518;2024-02-23T04:13:45;6.10;99.90
31809;DHT22;18379;48.208;-1.518;2024-02-23T04:18:45;6.10;99.90
31809;DHT22;18379;48.208;-1.518;2024-02-23T04:23:46;6.10;99.90
31809;DHT22;18379;48.208;-1.518;2024-02-23T04:28:47;6.20;99.90
31809;DHT22;18379;48.208;-1.518;2024-02-23T04:33:48;6.20;99.90
31809;DHT22;18379;48.208;-1.518;2024-02-23T04:38:48;6.20;99.90
31809;DHT22;18379;48.208;-1.518;2024-02-23T04:43:49;6.30;99.90
31809;DHT22;18379;48.208;-1.518;2024-02-23T04:48:50;6.40;99.90
31809;DHT22;18379;48.208;-1.518;2024-02-23T04:53:50;6.40;99.90
31809;DHT22;18379;48.208;-1.518;2024-02-23T04:58:51;6.40;99.90
31809;DHT22;18379;48.208;-1.518;2024-02-23T05:03:52;6.40;99.90
31809;DHT22;18379;48.208;-1.518;2024-02-23T05:08:52;6.50;99.90
31809;DHT22;18379;48.208;-1.518;2024-02-23T05:13:53;6.40;99.90
31809;DHT22;18379;48.208;-1.518;2024-02-23T05:18:53;6.50;99.90
31809;DHT22;18379;48.208;-1.518;2024-02-23T05:23:54;6.50;99.90
31809;DHT22;18379;48.208;-1.518;2024-02-23T05:28:55;6.50;99.90
31809;DHT22;18379;48.208;-1.518;2024-02-23T05:33:55;6.40;99.90
31809;DHT22;18379;48.208;-1.518;2024-02-23T05:38:56;6.50;99.90
31809;DHT22;18379;48.208;-1.518;2024-02-23T05:43:56;6.50;99.90
31809;DHT22;18379;48.208;-1.518;2024-02-23T05:48:57;6.40;99.90
31809;DHT22;18379;48.208;-1.518;2024-02-23T05:53:58;6.30;99.90
31809;DHT22;18379;48.208;-1.518;2024-02-23T05:58:59;6.30;99.90
31809;DHT22;18379;48.208;-1.518;2024-02-23T06:03:59;6.30;99.90
31809;DHT22;18379;48.208;-1.518;2024-02-23T06:09:00;6.30;99.90
31809;DHT22;18379;48.208;-1.518;2024-02-23T06:14:01;6.20;99.90
31809;DHT22;18379;48.208;-1.518;2024-02-23T06:19:01;6.20;99.90
31809;DHT22;18379;48.208;-1.518;2024-02-23T06:24:03;6.20;99.90
31809;DHT22;18379;48.208;-1.518;2024-02-23T06:29:05;6.20;99.90
31809;DHT22;18379;48.208;-1.518;2024-02-23T06:34:06;6.20;99.90
31809;DHT22;18379;48.208;-1.518;2024-02-23T06:39:07;6.20;99.90
31809;DHT22;18379;48.208;-1.518;2024-02-23T06:44:08;6.10;99.90
31809;DHT22;18379;48.208;-1.518;2024-02-23T06:49:09;6.10;99.90
31809;DHT22;18379;48.208;-1.518;2024-02-23T06:54:10;6.10;99.90
31809;DHT22;18379;48.208;-1.518;2024-02-23T06:59:11;6.10;99.90
31809;DHT22;18379;48.208;-1.518;2024-02-23T07:04:11;6.00;99.90
31809;DHT22;18379;48.208;-1.518;2024-02-23T07:09:12;6.00;99.90
31809;DHT22;18379;48.208;-1.518;2024-02-23T07:14:12;6.00;99.90
31809;DHT22;18379;48.208;-1.518;2024-02-23T07:19:14;6.10;99.90
31809;DHT22;18379;48.208;-1.518;2024-02-23T07:24:15;6.10;99.90
31809;DHT22;18379;48.208;-1.518;2024-02-23T07:29:16;6.10;99.90
31809;DHT22;18379;48.208;-1.518;2024-02-23T07:34:16;6.10;99.90
31809;DHT22;18379;48.208;-1.518;2024-02-23T07:39:17;6.00;99.90
31809;DHT22;18379;48.208;-1.518;2024-02-23T07:44:17;6.10;99.90
31809;DHT22;18379;48.208;-1.518;2024-02-23T07:49:18;6.20;99.90
31809;DHT22;18379;48.208;-1.518;2024-02-23T07:54:19;6.20;99.90
31809;DHT22;18379;48.208;-1.518;2024-02-23T07:59:20;6.30;99.90
31809;DHT22;18379;48.208;-1.518;2024-02-23T08:04:21;6.40;99.90
31809;DHT22;18379;48.208;-1.518;2024-02-23T08:09:21;6.50;99.90
31809;DHT22;18379;48.208;-1.518;2024-02-23T08:14:23;6.50;99.90
31809;DHT22;18379;48.208;-1.518;2024-02-23T08:19:23;6.50;99.90
31809;DHT22;18379;48.208;-1.518;2024-02-23T08:24:24;6.60;99.90
31809;DHT22;18379;48.208;-1.518;2024-02-23T08:29:27;6.60;99.90
31809;DHT22;18379;48.208;-1.518;2024-02-23T08:34:27;6.70;99.90
31809;DHT22;18379;48.208;-1.518;2024-02-23T08:39:28;6.70;99.90
31809;DHT22;18379;48.208;-1.518;2024-02-23T08:44:29;6.80;99.90
31809;DHT22;18379;48.208;-1.518;2024-02-23T08:49:29;7.00;99.90
31809;DHT22;18379;48.208;-1.518;2024-02-23T08:54:30;7.10;99.90
31809;DHT22;18379;48.208;-1.518;2024-02-23T08:59:31;7.20;99.90
31809;DHT22;18379;48.208;-1.518;2024-02-23T09:04:31;7.20;99.90
31809;DHT22;18379;48.208;-1.518;2024-02-23T09:09:32;7.20;99.90
31809;DHT22;18379;48.208;-1.518;2024-02-23T09:14:33;7.30;99.90
31809;DHT22;18379;48.208;-1.518;2024-02-23T09:19:36;7.40;99.90
31809;DHT22;18379;48.208;-1.518;2024-02-23T09:24:40;7.50;99.90
31809;DHT22;18379;48.208;-1.518;2024-02-23T09:29:41;7.70;99.90
31809;DHT22;18379;48.208;-1.518;2024-02-23T09:34:42;7.80;99.90
31809;DHT22;18379;48.208;-1.518;2024-02-23T09:39:43;7.80;99.90
31809;DHT22;18379;48.208;-1.518;2024-02-23T09:44:44;8.00;99.90
31809;DHT22;18379;48.208;-1.518;2024-02-23T09:49:48;7.80;99.90
31809;DHT22;18379;48.208;-1.518;2024-02-23T09:54:50;7.90;99.90
31809;DHT22;18379;48.208;-1.518;2024-02-23T09:59:51;7.90;99.90
31809;DHT22;18379;48.208;-1.518;2024-02-23T10:04:54;8.00;99.90
31809;DHT22;18379;48.208;-1.518;2024-02-23T10:09:56;8.10;99.90
31809;DHT22;18379;48.208;-1.518;2024-02-23T10:14:57;8.10;99.90
31809;DHT22;18379;48.208;-1.518;2024-02-23T10:19:58;8.30;99.90
31809;DHT22;18379;48.208;-1.518;2024-02-23T10:24:59;8.30;99.90
31809;DHT22;18379;48.208;-1.518;2024-02-23T10:30:00;8.20;99.90
31809;DHT22;18379;48.208;-1.518;2024-02-23T10:35:01;8.10;99.90
31809;DHT22;18379;48.208;-1.518;2024-02-23T10:40:06;8.20;99.90
31809;DHT22;18379;48.208;-1.518;2024-02-23T10:45:09;8.20;99.90
31809;DHT22;18379;48.208;-1.518;2024-02-23T10:50:10;8.40;99.90
31809;DHT22;18379;48.208;-1.518;2024-02-23T10:55:14;8.40;99.90
31809;DHT22;18379;48.208;-1.518;2024-02-23T11:00:16;8.50;99.90
31809;DHT22;18379;48.208;-1.518;2024-02-23T11:05:19;8.50;99.90
31809;DHT22;18379;48.208;-1.518;2024-02-23T11:10:22;8.60;99.90
31809;DHT22;18379;48.208;-1.518;2024-02-23T11:15:30;8.70;99.90
31809;DHT22;18379;48.208;-1.518;2024-02-23T11:20:35;8.80;99.90
31809;DHT22;18379;48.208;-1.518;2024-02-23T11:25:35;8.80;99.90
31809;DHT22;18379;48.208;-1.518;2024-02-23T11:30:36;8.80;99.90
31809;DHT22;18379;48.208;-1.518;2024-02-23T11:35:46;8.90;99.90
31809;DHT22;18379;48.208;-1.518;2024-02-23T11:40:50;9.00;99.90
31809;DHT22;18379;48.208;-1.518;2024-02-23T11:45:53;9.70;99.90
31809;DHT22;18379;48.208;-1.518;2024-02-23T11:50:53;9.70;99.90
31809;DHT22;18379;48.208;-1.518;2024-02-23T11:55:54;9.50;99.90
31809;DHT22;18379;48.208;-1.518;2024-02-23T12:00:55;9.70;99.90
31809;DHT22;18379;48.208;-1.518;2024-02-23T12:05:57;9.70;99.90
31809;DHT22;18379;48.208;-1.518;2024-02-23T12:10:58;9.40;99.90
31809;DHT22;18379;48.208;-1.518;2024-02-23T12:16:00;9.30;99.90
31809;DHT22;18379;48.208;-1.518;2024-02-23T12:21:02;9.70;99.90
31809;DHT22;18379;48.208;-1.518;2024-02-23T12:26:04;10.30;99.90
31809;DHT22;18379;48.208;-1.518;2024-02-23T12:31:06;10.50;99.90
31809;DHT22;18379;48.208;-1.518;2024-02-23T12:36:07;9.80;99.90
31809;DHT22;18379;48.208;-1.518;2024-02-23T12:41:08;9.70;99.90
31809;DHT22;18379;48.208;-1.518;2024-02-23T12:46:09;9.80;99.90
31809;DHT22;18379;48.208;-1.518;2024-02-23T12:51:13;9.90;99.90
31809;DHT22;18379;48.208;-1.518;2024-02-23T12:56:14;9.70;99.90
31809;DHT22;18379;48.208;-1.518;2024-02-23T13:01:16;10.30;99.90
31809;DHT22;18379;48.208;-1.518;2024-02-23T13:06:17;10.80;99.90
31809;DHT22;18379;48.208;-1.518;2024-02-23T13:11:17;10.80;99.90
31809;DHT22;18379;48.208;-1.518;2024-02-23T13:16:18;10.50;99.90
31809;DHT22;18379;48.208;-1.518;2024-02-23T13:21:20;10.70;99.90
31809;DHT22;18379;48.208;-1.518;2024-02-23T13:26:20;10.70;99.90
31809;DHT22;18379;48.208;-1.518;2024-02-23T13:31:21;10.30;99.90
31809;DHT22;18379;48.208;-1.518;2024-02-23T13:36:21;10.10;99.90
31809;DHT22;18379;48.208;-1.518;2024-02-23T13:41:22;9.90;99.90
31809;DHT22;18379;48.208;-1.518;2024-02-23T13:46:23;9.80;99.90
31809;DHT22;18379;48.208;-1.518;2024-02-23T13:51:23;9.80;99.90
31809;DHT22;18379;48.208;-1.518;2024-02-23T13:56:24;9.70;99.90
31809;DHT22;18379;48.208;-1.518;2024-02-23T14:01:25;9.60;99.90
31809;DHT22;18379;48.208;-1.518;2024-02-23T14:06:25;9.50;99.90
31809;DHT22;18379;48.208;-1.518;2024-02-23T14:11:26;9.20;99.90
31809;DHT22;18379;48.208;-1.518;2024-02-23T14:16:27;9.10;99.90
31809;DHT22;18379;48.208;-1.518;2024-02-23T14:21:27;9.20;99.90
31809;DHT22;18379;48.208;-1.518;2024-02-23T14:26:28;9.10;99.90
31809;DHT22;18379;48.208;-1.518;2024-02-23T14:31:29;9.10;99.90
31809;DHT22;18379;48.208;-1.518;2024-02-23T14:36:31;9.00;99.90
31809;DHT22;18379;48.208;-1.518;2024-02-23T14:41:34;8.80;99.90
31809;DHT22;18379;48.208;-1.518;2024-02-23T14:46:35;8.80;99.90
31809;DHT22;18379;48.208;-1.518;2024-02-23T14:51:35;8.60;99.90
31809;DHT22;18379;48.208;-1.518;2024-02-23T14:56:37;8.10;99.90
31809;DHT22;18379;48.208;-1.518;2024-02-23T15:01:38;8.20;99.90
31809;DHT22;18379;48.208;-1.518;2024-02-23T15:06:42;8.70;99.90
31809;DHT22;18379;48.208;-1.518;2024-02-23T15:11:43;8.90;99.90
31809;DHT22;18379;48.208;-1.518;2024-02-23T15:16:44;9.00;99.90
31809;DHT22;18379;48.208;-1.518;2024-02-23T15:21:45;8.70;99.90
31809;DHT22;18379;48.208;-1.518;2024-02-23T15:26:46;8.40;99.90
31809;DHT22;18379;48.208;-1.518;2024-02-23T15:31:47;8.40;99.90
31809;DHT22;18379;48.208;-1.518;2024-02-23T15:36:48;8.30;99.90
31809;DHT22;18379;48.208;-1.518;2024-02-23T15:41:49;8.20;99.90
31809;DHT22;18379;48.208;-1.518;2024-02-23T15:46:50;7.90;99.90
31809;DHT22;18379;48.208;-1.518;2024-02-23T15:51:51;7.60;99.90
31809;DHT22;18379;48.208;-1.518;2024-02-23T15:56:52;6.90;99.90
31809;DHT22;18379;48.208;-1.518;2024-02-23T16:01:52;6.60;99.90
31809;DHT22;18379;48.208;-1.518;2024-02-23T16:06:53;6.70;99.90
31809;DHT22;18379;48.208;-1.518;2024-02-23T16:11:54;6.70;99.90
31809;DHT22;18379;48.208;-1.518;2024-02-23T16:16:54;6.80;99.90
31809;DHT22;18379;48.208;-1.518;2024-02-23T16:21:55;7.00;99.90
31809;DHT22;18379;48.208;-1.518;2024-02-23T16:26:56;7.20;99.90
31809;DHT22;18379;48.208;-1.518;2024-02-23T16:31:56;7.30;99.90
31809;DHT22;18379;48.208;-1.518;2024-02-23T16:36:58;7.90;99.90
31809;DHT22;18379;48.208;-1.518;2024-02-23T16:41:59;8.10;99.90
31809;DHT22;18379;48.208;-1.518;2024-02-23T16:46:59;8.00;99.90
31809;DHT22;18379;48.208;-1.518;2024-02-23T16:52:00;7.80;99.90
31809;DHT22;18379;48.208;-1.518;2024-02-23T16:57:01;7.70;99.90
31809;DHT22;18379;48.208;-1.518;2024-02-23T17:02:01;7.60;99.90
31809;DHT22;18379;48.208;-1.518;2024-02-23T17:07:02;7.50;99.90
31809;DHT22;18379;48.208;-1.518;2024-02-23T17:12:03;7.30;99.90
31809;DHT22;18379;48.208;-1.518;2024-02-23T17:17:04;7.20;99.90
31809;DHT22;18379;48.208;-1.518;2024-02-23T17:22:05;7.00;99.90
31809;DHT22;18379;48.208;-1.518;2024-02-23T17:27:06;6.90;99.90
31809;DHT22;18379;48.208;-1.518;2024-02-23T17:32:07;6.60;99.90
31809;DHT22;18379;48.208;-1.518;2024-02-23T17:37:07;6.50;99.90
31809;DHT22;18379;48.208;-1.518;2024-02-23T17:42:09;6.50;99.90
31809;DHT22;18379;48.208;-1.518;2024-02-23T17:47:10;6.60;99.90
31809;DHT22;18379;48.208;-1.518;2024-02-23T17:52:11;6.70;99.90
31809;DHT22;18379;48.208;-1.518;2024-02-23T17:57:11;6.60;99.90
31809;DHT22;18379;48.208;-1.518;2024-02-23T18:02:12;6.50;99.90
31809;DHT22;18379;48.208;-1.518;2024-02-23T18:07:14;6.30;99.90
31809;DHT22;18379;48.208;-1.518;2024-02-23T18:12:16;6.40;99.90
31809;DHT22;18379;48.208;-1.518;2024-02-23T18:17:17;6.30;99.90
31809;DHT22;18379;48.208;-1.518;2024-02-23T18:22:18;6.30;99.90
31809;DHT22;18379;48.208;-1.518;2024-02-23T18:27:21;6.20;99.90
31809;DHT22;18379;48.208;-1.518;2024-02-23T18:32:28;6.20;99.90
31809;DHT22;18379;48.208;-1.518;2024-02-23T18:37:29;6.00;99.90
31809;DHT22;18379;48.208;-1.518;2024-02-23T18:42:30;6.00;99.90
31809;DHT22;18379;48.208;-1.518;2024-02-23T18:47:31;6.00;99.90
31809;DHT22;18379;48.208;-1.518;2024-02-23T18:52:32;6.00;99.90
31809;DHT22;18379;48.208;-1.518;2024-02-23T18:57:32;6.00;99.90
31809;DHT22;18379;48.208;-1.518;2024-02-23T19:02:33;5.90;99.90
31809;DHT22;18379;48.208;-1.518;2024-02-23T19:07:36;5.90;99.90
31809;DHT22;18379;48.208;-1.518;2024-02-23T19:12:36;5.90;99.90
31809;DHT22;18379;48.208;-1.518;2024-02-23T19:17:40;5.80;99.90
31809;DHT22;18379;48.208;-1.518;2024-02-23T19:22:41;5.70;99.90
31809;DHT22;18379;48.208;-1.518;2024-02-23T19:27:41;5.70;99.90
31809;DHT22;18379;48.208;-1.518;2024-02-23T19:32:42;5.60;99.90
31809;DHT22;18379;48.208;-1.518;2024-02-23T19:37:43;5.50;99.90
31809;DHT22;18379;48.208;-1.518;2024-02-23T19:42:43;5.40;99.90
31809;DHT22;18379;48.208;-1.518;2024-02-23T19:47:44;5.40;99.90
31809;DHT22;18379;48.208;-1.518;2024-02-23T19:52:45;5.30;99.90
31809;DHT22;18379;48.208;-1.518;2024-02-23T19:57:45;5.30;99.90
31809;DHT22;18379;48.208;-1.518;2024-02-23T20:02:46;5.30;99.90
31809;DHT22;18379;48.208;-1.518;2024-02-23T20:07:46;5.20;99.90
31809;DHT22;18379;48.208;-1.518;2024-02-23T20:12:47;5.20;99.90
31809;DHT22;18379;48.208;-1.518;2024-02-23T20:17:50;5.20;99.90
31809;DHT22;18379;48.208;-1.518;2024-02-23T20:22:51;5.10;99.90
31809;DHT22;18379;48.208;-1.518;2024-02-23T20:27:51;5.10;99.90
31809;DHT22;18379;48.208;-1.518;2024-02-23T20:32:52;5.10;99.90
31809;DHT22;18379;48.208;-1.518;2024-02-23T20:37:52;5.00;99.90
31809;DHT22;18379;48.208;-1.518;2024-02-23T20:42:53;5.00;99.90
31809;DHT22;18379;48.208;-1.518;2024-02-23T20:47:54;5.00;99.90
31809;DHT22;18379;48.208;-1.518;2024-02-23T20:52:54;5.00;99.90
31809;DHT22;18379;48.208;-1.518;2024-02-23T20:57:55;4.90;99.90
31809;DHT22;18379;48.208;-1.518;2024-02-23T21:02:56;4.90;99.90
31809;DHT22;18379;48.208;-1.518;2024-02-23T21:07:56;5.00;99.90
31809;DHT22;18379;48.208;-1.518;2024-02-23T21:12:57;4.90;99.90
31809;DHT22;18379;48.208;-1.518;2024-02-23T21:17:57;4.90;99.90
31809;DHT22;18379;48.208;-1.518;2024-02-23T21:22:58;4.80;99.90
31809;DHT22;18379;48.208;-1.518;2024-02-23T21:27:59;4.90;99.90
31809;DHT22;18379;48.208;-1.518;2024-02-23T21:32:59;5.00;99.90
31809;DHT22;18379;48.208;-1.518;2024-02-23T21:38:00;4.90;99.90
31809;DHT22;18379;48.208;-1.518;2024-02-23T21:43:02;4.90;99.90
31809;DHT22;18379;48.208;-1.518;2024-02-23T21:48:03;4.90;99.90
31809;DHT22;18379;48.208;-1.518;2024-02-23T21:53:04;4.90;99.90
31809;DHT22;18379;48.208;-1.518;2024-02-23T21:58:04;4.90;99.90
31809;DHT22;18379;48.208;-1.518;2024-02-23T22:03:05;4.90;99.90
31809;DHT22;18379;48.208;-1.518;2024-02-23T22:08:06;4.90;99.90
31809;DHT22;18379;48.208;-1.518;2024-02-23T22:13:07;4.90;99.90
31809;DHT22;18379;48.208;-1.518;2024-02-23T22:18:07;5.00;99.90
31809;DHT22;18379;48.208;-1.518;2024-02-23T22:23:08;5.10;99.90
31809;DHT22;18379;48.208;-1.518;2024-02-23T22:28:12;5.00;99.90
31809;DHT22;18379;48.208;-1.518;2024-02-23T22:33:12;4.90;99.90
31809;DHT22;18379;48.208;-1.518;2024-02-23T22:38:13;4.80;99.90
31809;DHT22;18379;48.208;-1.518;2024-02-23T22:43:14;4.60;99.90
31809;DHT22;18379;48.208;-1.518;2024-02-23T22:48:15;4.40;99.90
31809;DHT22;18379;48.208;-1.518;2024-02-23T22:53:16;4.40;99.90
31809;DHT22;18379;48.208;-1.518;2024-02-23T22:58:16;4.40;99.90
31809;DHT22;18379;48.208;-1.518;2024-02-23T23:03:17;4.30;99.90
31809;DHT22;18379;48.208;-1.518;2024-02-23T23:08:18;4.30;99.90
31809;DHT22;18379;48.208;-1.518;2024-02-23T23:13:19;4.20;99.90
31809;DHT22;18379;48.208;-1.518;2024-02-23T23:18:19;4.20;99.90
31809;DHT22;18379;48.208;-1.518;2024-02-23T23:23:20;4.30;99.90
31809;DHT22;18379;48.208;-1.518;2024-02-23T23:28:21;4.20;99.90
31809;DHT22;18379;48.208;-1.518;2024-02-23T23:33:21;4.30;99.90
31809;DHT22;18379;48.208;-1.518;2024-02-23T23:38:22;4.40;99.90
31809;DHT22;18379;48.208;-1.518;2024-02-23T23:43:23;4.30;99.90
31809;DHT22;18379;48.208;-1.518;2024-02-23T23:48:23;4.20;99.90
31809;DHT22;18379;48.208;-1.518;2024-02-23T23:53:24;4.30;99.90
31809;DHT22;18379;48.208;-1.518;2024-02-23T23:58:24;4.30;99.90
